This is the latest recevied weather packets stored in our database for station/object OE-11208. If no packets are shown the sender has not sent any weather packets the latest 10 day(s).
| Time | Temp. | Humidity | Pressure | Rain* | Wind** | Luminosity | Snow |
|---|---|---|---|---|---|---|---|
| 1787817321 | 18.33° C | 77% | 1016.2 hPa | 0 mm | - | 477 W/m² | - |
| 1787816494 | 18.33° C | 78% | 1016.3 hPa | 0 mm | - | 417 W/m² | - |
| 1787816121 | 17.78° C | 80% | 1016.4 hPa | 0 mm | - | 410 W/m² | - |
| 1787815519 | 16.67° C | 82% | 1016.9 hPa | 0 mm | - | 309 W/m² | - |
| 1787814695 | 16.67° C | 84% | 1016.9 hPa | 0 mm | - | 377 W/m² | - |
| 1787813722 | 15.56° C | 87% | 1017.5 hPa | 0 mm | - | 330 W/m² | - |
| 1787812895 | 15.56° C | 89% | 1017.7 hPa | 0 mm | - | 303 W/m² | - |
| 1787812522 | 15° C | 91% | 1018.1 hPa | 0 mm | - | 276 W/m² | - |
| 1787811922 | 14.44° C | 94% | 1018.3 hPa | 0 mm | - | 242 W/m² | - |
| 1787811334 | 13.33° C | 97% | 1018.8 hPa | 0 mm | - | 195 W/m² | - |
| 1787810722 | 12.22° C | 97% | 1019 hPa | 0 mm | - | 155 W/m² | - |
| 1787810122 | 12.22° C | 98% | 1019.3 hPa | 0 mm | - | 134 W/m² | - |
| 1787809295 | 11.67° C | 96% | 1019.6 hPa | 0 mm | - | 101 W/m² | - |
| 1787808922 | 11.11° C | 96% | 1020 hPa | 0 mm | - | 40 W/m² | - |
| 1787808322 | 11.11° C | 98% | 1020 hPa | 0 mm | - | 40 W/m² | - |
| 1787807495 | 10.56° C | 98% | 1020.2 hPa | 0 mm | - | 47 W/m² | - |
| 1787807122 | 10° C | 98% | 1020.4 hPa | 0 mm | - | 40 W/m² | - |
| 1787806522 | 10° C | 98% | 1020.2 hPa | 0 mm | - | 20 W/m² | - |
| 1787805694 | 10.56° C | 97% | 1019.9 hPa | 0 mm | - | 7 W/m² | - |
| 1787805322 | 10° C | 97% | 1019.9 hPa | 0 mm | - | 0 W/m² | - |
| 1787804722 | 10.56° C | 96% | 1019.8 hPa | 0 mm | - | 0 W/m² | - |
| 1787803895 | 10.56° C | 96% | 1019.8 hPa | 0 mm | - | 0 W/m² | - |
| 1787803522 | 11.11° C | 97% | 1019.6 hPa | 0 mm | - | 0 W/m² | - |
| 1787802922 | 10.56° C | 97% | 1019.7 hPa | 0 mm | - | 0 W/m² | - |
| 1787802322 | 10.56° C | 96% | 1019.7 hPa | 0 mm | - | 0 W/m² | - |
* Rain latest hour (hover to see other rain measurements)
** Current wind speed in m/s (hover to see current wind gust speed)